Time;durP1;ratioP1;P1;durP2;ratioP2;P2;SDS_P1;SDS_P2;PMS_P1;PMS_P2;Temp;Humidity;BMP_temperature;BMP_pressure;BME280_temperature;BME280_humidity;BME280_pressure;Samples;Min_cycle;Max_cycle;Signal;HPM_P1;HPM_P2
2021/11/20 00:04:09;;;;;;;3.44;2.55;;;;;;;6.76;92.86;98768.41;372187;142;876429;-65
2021/11/20 00:05:12;;;;;;;2.79;1.74;;;;;;;6.68;93.05;98772.78;364397;146;857794;-65
2021/11/20 00:06:16;;;;;;;1.09;1.04;;;;;;;;;;363670;147;857875;-65
2021/11/20 00:07:18;;;;;;;2.31;1.30;;;;;;;;;;360762;147;864899;-65
2021/11/20 00:08:21;;;;;;;2.89;1.44;;;;;;;;;;359705;147;857554;-63
2021/11/20 00:09:23;;;;;;;3.15;1.59;;;;;;;;;;359465;148;858135;-65
2021/11/20 00:10:26;;;;;;;1.87;1.42;;;;;;;;;;358914;148;858591;-63
2021/11/20 00:11:29;;;;;;;2.07;1.68;;;;;;;;;;361284;148;857627;-63
2021/11/20 00:12:31;;;;;;;2.31;1.85;;;;;;;;;;359947;147;859145;-64
2021/11/20 00:13:32;;;;;;;1.78;1.33;;;;;;;;;;358143;148;866351;-64
2021/11/20 00:14:34;;;;;;;2.53;2.14;;;;;;;;;;360749;147;866627;-63
2021/11/20 00:15:37;;;;;;;3.61;2.10;;;;;;;;;;359444;147;864503;-66
2021/11/20 00:16:39;;;;;;;3.17;2.08;;;;;;;;;;358879;148;861919;-63
2021/11/20 00:17:41;;;;;;;3.07;2.45;;;;;;;;;;360137;147;858754;-64
2021/11/20 00:18:42;;;;;;;2.84;2.06;;;;;;;;;;360702;147;857236;-64
2021/11/20 00:19:44;;;;;;;2.22;1.67;;;;;;;;;;358056;147;865001;-65
2021/11/20 00:20:48;;;;;;;2.87;2.60;;;;;;;;;;357889;148;864849;-65
2021/11/20 00:21:55;;;;;;;3.65;2.49;;;;;;;;;;360473;147;858075;-66
2021/11/20 00:22:56;;;;;;;3.60;2.49;;;;;;;;;;359893;147;858975;-63
2021/11/20 00:23:59;;;;;;;3.98;2.81;;;;;;;;;;360209;148;857306;-65
2021/11/20 00:25:02;;;;;;;3.24;2.26;;;;;;;;;;360674;148;857257;-64
2021/11/20 00:26:06;;;;;;;4.08;3.24;;;;;;;;;;360225;147;858891;-65
2021/11/20 00:27:08;;;;;;;4.01;2.95;;;;;;;;;;361384;147;859241;-64
2021/11/20 00:28:16;;;;;;;2.55;2.16;;;;;;;;;;360725;148;864764;-65
2021/11/20 00:30:20;;;;;;;4.41;2.25;;;;;;;;;;362134;148;859327;-65
2021/11/20 00:31:21;;;;;;;3.12;2.14;;;;;;;;;;358497;148;857765;-65
2021/11/20 00:32:26;;;;;;;3.85;2.71;;;;;;;;;;359496;147;857222;-66
2021/11/20 00:33:27;;;;;;;3.50;2.27;;;;;;;;;;361596;147;864778;-65
2021/11/20 00:34:30;;;;;;;3.64;2.51;;;;;;;;;;360027;148;857641;-65
2021/11/20 00:35:33;;;;;;;3.17;2.48;;;;;;;;;;362134;148;859054;-65
2021/11/20 00:36:35;;;;;;;3.76;3.01;;;;;;;;;;361526;148;858896;-65
2021/11/20 00:37:37;;;;;;;2.86;2.48;;;;;;;;;;357135;148;857177;-65
2021/11/20 00:38:39;;;;;;;3.26;2.67;;;;;;;;;;356582;148;863814;-65
2021/11/20 00:39:41;;;;;;;3.67;3.29;;;;;;;;;;360404;148;856910;-64
2021/11/20 00:40:44;;;;;;;4.06;3.30;;;;;;;;;;362130;148;859557;-64
2021/11/20 00:41:46;;;;;;;5.84;3.14;;;;;;;;;;361362;148;857172;-65
2021/11/20 00:42:47;;;;;;;3.50;2.85;;;;;;;;;;362990;147;858839;-64
2021/11/20 00:43:49;;;;;;;4.17;3.22;;;;;;;;;;362454;147;857168;-64
2021/11/20 00:44:51;;;;;;;4.09;3.25;;;;;;;;;;360705;148;865586;-64
2021/11/20 00:45:53;;;;;;;5.29;3.44;;;;;;;;;;361692;148;859129;-63
2021/11/20 00:46:55;;;;;;;3.77;3.35;;;;;;;;;;359870;147;864759;-62
2021/11/20 00:47:56;;;;;;;4.84;2.99;;;;;;;;;;361008;148;858874;-63
2021/11/20 00:48:58;;;;;;;6.06;3.36;;;;;;;;;;358579;148;864912;-62
2021/11/20 00:50:01;;;;;;;6.48;3.53;;;;;;;;;;359720;147;864766;-61
2021/11/20 00:51:05;;;;;;;5.24;3.38;;;;;;;;;;358267;147;860060;-61
2021/11/20 00:52:07;;;;;;;4.63;3.24;;;;;;;;;;359109;148;859364;-65
2021/11/20 00:53:09;;;;;;;4.53;3.13;;;;;;;;;;361112;147;858370;-64
2021/11/20 00:54:10;;;;;;;4.01;2.73;;;;;;;;;;361310;147;858235;-64
2021/11/20 00:55:13;;;;;;;4.59;2.79;;;;;;;;;;359325;147;857650;-63
2021/11/20 00:56:16;;;;;;;5.11;3.26;;;;;;;;;;362449;148;863626;-63
2021/11/20 00:57:18;;;;;;;4.60;3.02;;;;;;;;;;360615;147;857232;-64
2021/11/20 00:58:20;;;;;;;5.08;3.81;;;;;;;;;;360230;147;857335;-63
2021/11/20 00:59:22;;;;;;;6.15;3.91;;;;;;;;;;357478;148;865231;-63
2021/11/20 01:00:27;;;;;;;5.46;3.44;;;;;;;;;;361774;148;859363;-65
2021/11/20 01:01:30;;;;;;;6.56;4.22;;;;;;;;;;361360;147;858166;-62
2021/11/20 01:02:32;;;;;;;5.87;4.40;;;;;;;;;;362633;147;857188;-63
2021/11/20 01:03:33;;;;;;;6.54;3.81;;;;;;;;;;362505;148;865083;-63
2021/11/20 01:04:35;;;;;;;6.96;4.40;;;;;;;;;;360692;147;864927;-64
2021/11/20 01:05:37;;;;;;;4.11;3.60;;;;;;;;;;358192;147;864956;-62
2021/11/20 01:06:40;;;;;;;5.69;4.11;;;;;;;;;;357780;148;866006;-63
2021/11/20 01:07:41;;;;;;;4.17;3.31;;;;;;;;;;360863;147;864836;-63
2021/11/20 01:08:44;;;;;;;3.20;2.61;;;;;;;;;;359802;147;857302;-63
2021/11/20 01:09:45;;;;;;;8.59;4.20;;;;;;;;;;362277;148;865140;-64
2021/11/20 01:10:49;;;;;;;4.60;3.83;;;;;;;;;;362362;147;857127;-64
2021/11/20 01:11:52;;;;;;;6.58;4.35;;;;;;;;;;363360;147;858920;-62
2021/11/20 01:12:53;;;;;;;5.46;3.99;;;;;;;;;;354399;150;858942;-65
2021/11/20 01:13:56;;;;;;;7.37;3.62;;;;;;;;;;362877;148;858159;-64
2021/11/20 01:14:58;;;;;;;6.17;3.71;;;;;;;;;;362011;147;865026;-62
2021/11/20 01:16:01;;;;;;;5.61;3.82;;;;;;;;;;360842;148;859082;-62
2021/11/20 01:17:03;;;;;;;6.37;4.31;;;;;;;;;;362415;148;857329;-63
2021/11/20 01:18:05;;;;;;;4.83;3.91;;;;;;;;;;361217;147;866556;-64
2021/11/20 01:19:06;;;;;;;6.50;4.01;;;;;;;;;;362275;148;857267;-62
2021/11/20 01:20:09;;;;;;;5.08;3.78;;;;;;;;;;358759;148;858784;-62
2021/11/20 01:21:11;;;;;;;5.15;4.08;;;;;;;;;;363538;148;857662;-63
2021/11/20 01:22:14;;;;;;;7.75;3.94;;;;;;;;;;361253;147;857252;-63
2021/11/20 01:23:16;;;;;;;7.18;4.37;;;;;;;;;;360769;147;857649;-63
2021/11/20 01:24:19;;;;;;;5.38;3.69;;;;;;;;;;362659;148;866718;-63
2021/11/20 01:25:22;;;;;;;6.47;4.49;;;;;;;;;;359231;148;857320;-61
2021/11/20 01:26:25;;;;;;;6.56;4.64;;;;;;;;;;359697;147;857846;-63
2021/11/20 01:27:27;;;;;;;7.81;4.40;;;;;;;;;;360497;148;857292;-64
2021/11/20 01:28:29;;;;;;;7.10;4.30;;;;;;;;;;359889;148;864780;-63
2021/11/20 01:29:31;;;;;;;6.06;4.46;;;;;;;;;;360949;148;864205;-64
2021/11/20 01:30:33;;;;;;;6.04;4.45;;;;;;;;;;361067;148;864936;-64
2021/11/20 01:31:35;;;;;;;5.74;4.08;;;;;;;;;;358974;148;858992;-64
2021/11/20 01:32:37;;;;;;;5.39;4.37;;;;;;;;;;358986;148;864898;-62
2021/11/20 01:33:39;;;;;;;5.38;3.90;;;;;;;;;;362270;147;857729;-63
2021/11/20 01:34:41;;;;;;;5.48;4.42;;;;;;;;;;363214;148;863992;-62
2021/11/20 01:35:43;;;;;;;8.19;4.14;;;;;;;;;;360374;148;858703;-63
2021/11/20 01:36:44;;;;;;;5.93;4.35;;;;;;;;;;359989;148;864720;-63
2021/11/20 01:37:46;;;;;;;5.51;4.15;;;;;;;;;;361562;147;865044;-63
2021/11/20 01:38:48;;;;;;;4.91;4.16;;;;;;;;;;362140;148;857532;-63
2021/11/20 01:39:50;;;;;;;6.27;4.76;;;;;;;;;;361942;148;863453;-63
2021/11/20 01:40:51;;;;;;;7.05;5.19;;;;;;;;;;360050;147;857648;-62
2021/11/20 01:41:55;;;;;;;7.58;4.55;;;;;;;;;;360698;148;863749;-64
2021/11/20 01:42:56;;;;;;;5.49;3.99;;;;;;;;;;362554;147;864734;-64
2021/11/20 01:43:58;;;;;;;5.16;4.07;;;;;;;;;;360136;147;859826;-64
2021/11/20 01:45:05;;;;;;;6.91;4.56;;;;;;;;;;355960;150;865661;-63
2021/11/20 01:46:09;;;;;;;6.88;4.83;;;;;;;;;;347006;153;859130;-64
2021/11/20 01:47:15;;;;;;;5.83;3.79;;;;;;;;;;355422;147;859575;-64
2021/11/20 01:48:37;;;;;;;5.98;5.00;;;;;;;;;;360374;147;857643;-65
2021/11/20 01:49:39;;;;;;;4.33;3.38;;;;;;;;;;358581;148;861326;-64
2021/11/20 01:50:42;;;;;;;5.17;4.19;;;;;;;;;;361777;147;858801;-64
2021/11/20 01:51:48;;;;;;;8.47;4.91;;;;;;;;;;360536;147;864916;-64
2021/11/20 01:52:55;;;;;;;6.13;4.06;;;;;;;;;;361281;148;857634;-64
2021/11/20 01:54:14;;;;;;;6.38;4.70;;;;;;;;;;362171;148;857970;-64
2021/11/20 01:55:34;;;;;;;7.35;4.34;;;;;;;;;;359305;147;856904;-63
2021/11/20 01:56:36;;;;;;;;;;;;;;;;;;364579;148;857406;-64
2021/11/20 01:57:42;;;;;;;6.60;4.57;;;;;;;;;;357969;147;857244;-63
2021/11/20 01:58:46;;;;;;;6.82;4.40;;;;;;;;;;358655;147;857357;-63
2021/11/20 01:59:49;;;;;;;6.12;4.42;;;;;;;;;;359074;148;856609;-65
2021/11/20 02:00:59;;;;;;;7.89;4.36;;;;;;;;;;361221;147;856034;-65
2021/11/20 02:02:02;;;;;;;9.08;4.32;;;;;;;;;;359940;147;858471;-65
2021/11/20 02:03:06;;;;;;;8.47;4.86;;;;;;;;;;357515;148;857183;-65
2021/11/20 02:04:12;;;;;;;6.03;3.91;;;;;;;;;;357561;148;865757;-64
2021/11/20 02:05:16;;;;;;;5.52;4.13;;;;;;;;;;359177;147;857305;-63
2021/11/20 02:06:22;;;;;;;4.44;3.47;;;;;;;;;;362645;147;857142;-64
2021/11/20 02:07:35;;;;;;;6.27;3.78;;;;;;;;;;362024;148;864759;-64
2021/11/20 02:08:39;;;;;;;5.22;4.02;;;;;;;;;;361914;148;861001;-64
2021/11/20 02:09:48;;;;;;;4.89;4.02;;;;;;;;;;360875;147;856804;-64
2021/11/20 02:10:52;;;;;;;8.22;4.32;;;;;;;;;;360154;148;858025;-63
2021/11/20 02:11:55;;;;;;;4.97;3.41;;;;;;;;;;359961;147;857759;-63
2021/11/20 02:12:59;;;;;;;7.64;4.39;;;;;;;;;;362368;147;858039;-63
2021/11/20 02:14:01;;;;;;;4.78;3.86;;;;;;;;;;357330;148;857348;-64
2021/11/20 02:15:03;;;;;;;5.17;3.65;;;;;;;;;;360823;148;864816;-63
2021/11/20 02:16:07;;;;;;;5.36;3.60;;;;;;;;;;360743;147;864819;-64
2021/11/20 02:17:10;;;;;;;4.82;3.04;;;;;;;;;;361288;148;857785;-65
2021/11/20 02:18:12;;;;;;;5.47;2.92;;;;;;;;;;358245;148;865779;-64
2021/11/20 02:19:15;;;;;;;4.42;3.37;;;;;;;;;;360577;147;856774;-64
2021/11/20 02:20:19;;;;;;;4.97;3.21;;;;;;;;;;360218;147;858633;-65
2021/11/20 02:21:26;;;;;;;5.81;3.56;;;;;;;;;;363119;148;860510;-64
2021/11/20 02:22:35;;;;;;;5.51;3.87;;;;;;;;;;360795;147;864831;-64
2021/11/20 02:23:36;;;;;;;4.53;3.38;;;;;;;;;;361523;147;857258;-64
2021/11/20 02:24:38;;;;;;;4.23;2.96;;;;;;;;;;360523;148;857455;-65
2021/11/20 02:25:39;;;;;;;4.21;3.34;;;;;;;;;;360473;147;857397;-64
2021/11/20 02:26:41;;;;;;;6.02;3.64;;;;;;;;;;361922;147;859187;-64
2021/11/20 02:27:47;;;;;;;4.01;2.48;;;;;;;;;;360188;148;864814;-64
2021/11/20 02:28:49;;;;;;;3.85;2.93;;;;;;;;;;359267;148;860620;-64
2021/11/20 02:29:52;;;;;;;2.45;1.94;;;;;;;;;;363258;148;858971;-65
2021/11/20 02:30:54;;;;;;;3.15;2.55;;;;;;;;;;356998;148;866720;-62
2021/11/20 02:31:57;;;;;;;3.95;2.73;;;;;;;;;;362144;148;864768;-64
2021/11/20 02:33:03;;;;;;;3.24;2.61;;;;;;;;;;361995;147;864855;-64
2021/11/20 02:34:05;;;;;;;3.19;2.62;;;;;;;;;;362377;148;860008;-63
2021/11/20 02:35:07;;;;;;;2.96;2.23;;;;;;;;;;362081;148;857233;-63
2021/11/20 02:36:10;;;;;;;4.09;2.51;;;;;;;;;;359428;148;864514;-63
2021/11/20 02:37:12;;;;;;;3.64;2.44;;;;;;;;;;360717;147;857677;-65
2021/11/20 02:38:15;;;;;;;3.61;2.40;;;;;;;;;;363042;148;866680;-63
2021/11/20 02:39:22;;;;;;;3.92;2.58;;;;;;;;;;360102;148;858935;-64
2021/11/20 02:40:24;;;;;;;4.07;2.49;;;;;;;;;;362163;147;857156;-64
2021/11/20 02:41:26;;;;;;;3.81;2.48;;;;;;;;;;360891;147;859477;-64
2021/11/20 02:42:28;;;;;;;4.68;2.33;;;;;;;;;;363604;148;857171;-64
2021/11/20 02:43:32;;;;;;;3.06;2.39;;;;;;;;;;361332;147;860259;-65
2021/11/20 02:44:34;;;;;;;2.64;2.33;;;;;;;;;;359436;147;865096;-64
2021/11/20 02:45:37;;;;;;;3.12;2.39;;;;;;;;;;358977;148;857339;-64
2021/11/20 02:46:40;;;;;;;3.13;2.10;;;;;;;;;;361372;148;858756;-64
2021/11/20 02:47:42;;;;;;;3.71;2.31;;;;;;;;;;361576;147;856521;-64
2021/11/20 02:48:44;;;;;;;3.16;2.16;;;;;;;;;;362049;148;857619;-63
2021/11/20 02:49:45;;;;;;;3.19;1.73;;;;;;;;;;359156;148;864663;-64
2021/11/20 02:50:49;;;;;;;3.88;2.32;;;;;;;;;;359406;147;866411;-64
2021/11/20 02:51:55;;;;;;;4.90;2.75;;;;;;;;;;361845;147;865523;-64
2021/11/20 02:52:57;;;;;;;2.56;2.10;;;;;;;;;;362521;148;857181;-65
2021/11/20 02:53:59;;;;;;;3.05;2.14;;;;;;;;;;361850;147;858096;-64
2021/11/20 02:55:01;;;;;;;2.88;2.07;;;;;;;;;;361543;147;859947;-65
2021/11/20 02:56:03;;;;;;;3.22;2.31;;;;;;;;;;358202;148;864683;-64
2021/11/20 02:57:09;;;;;;;2.91;1.95;;;;;;;;;;358087;148;858694;-64
2021/11/20 02:58:11;;;;;;;3.47;2.37;;;;;;;;;;361695;147;857218;-65
2021/11/20 02:59:13;;;;;;;2.79;2.09;;;;;;;;;;359650;148;858412;-63
2021/11/20 03:00:17;;;;;;;3.99;2.35;;;;;;;;;;356396;148;857163;-64
2021/11/20 03:01:24;;;;;;;2.63;2.25;;;;;;;;;;359306;148;859379;-64
2021/11/20 03:02:26;;;;;;;2.04;1.61;;;;;;;;;;360333;147;865498;-63
2021/11/20 03:03:27;;;;;;;4.54;2.50;;;;;;;;;;361886;148;857285;-64
2021/11/20 03:04:29;;;;;;;2.65;1.76;;;;;;;;;;362602;148;864872;-64
2021/11/20 03:05:30;;;;;;;2.66;1.70;;;;;;;;;;357660;147;863434;-64
2021/11/20 03:06:33;;;;;;;6.06;2.43;;;;;;;;;;352802;151;858571;-63
2021/11/20 03:07:35;;;;;;;2.24;1.85;;;;;;;;;;353369;149;857839;-64
2021/11/20 03:08:36;;;;;;;3.79;2.19;;;;;;;;;;354834;150;857739;-64
2021/11/20 03:09:38;;;;;;;3.96;2.02;;;;;;;;;;354292;150;865949;-63
2021/11/20 03:10:41;;;;;;;2.51;1.84;;;;;;;;;;356673;151;864870;-64
2021/11/20 03:11:43;;;;;;;2.43;1.65;;;;;;;;;;354714;151;865544;-63
2021/11/20 03:12:45;;;;;;;2.21;1.99;;;;;;;;;;353875;150;858147;-63
2021/11/20 03:13:48;;;;;;;2.24;1.87;;;;;;;;;;353175;151;864516;-64
2021/11/20 03:14:50;;;;;;;3.01;2.01;;;;;;;;;;353842;151;861337;-63
2021/11/20 03:15:51;;;;;;;3.11;1.93;;;;;;;;;;355021;150;865199;-62
2021/11/20 03:16:55;;;;;;;2.58;1.56;;;;;;;;;;355569;150;863988;-65
2021/11/20 03:17:57;;;;;;;2.03;1.71;;;;;;;;;;354843;151;865213;-65
2021/11/20 03:18:58;;;;;;;2.42;1.98;;;;;;;;;;354361;151;859033;-67
2021/11/20 03:20:00;;;;;;;5.21;2.15;;;;;;;;;;354286;150;864514;-66
2021/11/20 03:21:02;;;;;;;3.80;2.07;;;;;;;;;;354996;151;864884;-66
2021/11/20 03:22:05;;;;;;;2.71;2.07;;;;;;;;;;353085;151;858122;-67
2021/11/20 03:23:12;;;;;;;3.62;2.17;;;;;;;;;;354723;150;858264;-66
2021/11/20 03:24:14;;;;;;;3.38;2.01;;;;;;;;;;350955;151;857609;-67
2021/11/20 03:25:16;;;;;;;3.22;1.95;;;;;;;;;;349487;154;859879;-67
2021/11/20 03:26:18;;;;;;;2.62;1.58;;;;;;;;;;349541;153;857169;-67
2021/11/20 03:27:20;;;;;;;2.41;2.09;;;;;;;;;;348384;153;858677;-68
2021/11/20 03:28:22;;;;;;;3.78;2.23;;;;;;;;;;347044;153;857136;-66
2021/11/20 03:29:25;;;;;;;5.19;1.89;;;;;;;;;;348893;153;865615;-67
2021/11/20 03:30:28;;;;;;;2.45;1.82;;;;;;;;;;347224;153;857171;-67
2021/11/20 03:31:30;;;;;;;3.56;2.09;;;;;;;;;;347917;153;865113;-67
2021/11/20 03:32:32;;;;;;;1.80;1.56;;;;;;;;;;347294;153;866355;-66
2021/11/20 03:33:33;;;;;;;3.67;1.91;;;;;;;;;;347452;153;865098;-66
2021/11/20 03:34:35;;;;;;;4.40;1.78;;;;;;;;;;349727;152;858697;-66
2021/11/20 03:35:37;;;;;;;1.81;1.64;;;;;;;;;;348731;153;865804;-62
2021/11/20 03:36:39;;;;;;;3.10;1.96;;;;;;;;;;338722;157;864821;-64
2021/11/20 03:37:40;;;;;;;2.95;1.93;;;;;;;;;;345219;153;865362;-64
2021/11/20 03:38:42;;;;;;;3.28;2.28;;;;;;;;;;341044;156;857329;-63
2021/11/20 03:39:43;;;;;;;3.25;2.02;;;;;;;;;;348729;153;860402;-64
2021/11/20 03:40:45;;;;;;;2.86;2.14;;;;;;;;;;341974;154;865158;-63
2021/11/20 03:41:47;;;;;;;2.31;1.57;;;;;;;;;;345841;152;863648;-65
2021/11/20 03:42:49;;;;;;;3.15;1.64;;;;;;;;;;347459;153;866884;-65
2021/11/20 03:43:51;;;;;;;1.55;1.40;;;;;;;;;;347775;153;859074;-64
2021/11/20 03:44:53;;;;;;;2.99;1.57;;;;;;;;;;348615;154;864963;-67
2021/11/20 03:45:55;;;;;;;5.15;2.05;;;;;;;;;;347578;154;859541;-60
2021/11/20 03:46:57;;;;;;;4.29;1.79;;;;;;;;;;347598;152;857781;-66
2021/11/20 03:47:59;;;;;;;5.52;2.26;;;;;;;;;;346432;154;865787;-62
2021/11/20 03:49:00;;;;;;;2.44;1.43;;;;;;;;;;348998;152;857299;-63
2021/11/20 03:50:03;;;;;;;2.81;1.69;;;;;;;;;;347188;154;860672;-65
2021/11/20 03:51:05;;;;;;;1.85;1.55;;;;;;;;;;347326;153;865324;-65
2021/11/20 03:52:06;;;;;;;2.96;1.96;;;;;;;;;;347373;153;858941;-62
2021/11/20 03:53:08;;;;;;;2.14;1.69;;;;;;;;;;346674;154;857362;-70
2021/11/20 03:54:10;;;;;;;2.87;1.61;;;;;;;;;;341195;154;864661;-64
2021/11/20 03:55:13;;;;;;;3.17;1.79;;;;;;;;;;342726;154;857384;-64
2021/11/20 03:56:15;;;;;;;4.07;1.69;;;;;;;;;;338154;156;856275;-61
2021/11/20 03:57:17;;;;;;;2.78;1.66;;;;;;;;;;341264;154;857755;-63
2021/11/20 03:58:19;;;;;;;2.90;1.63;;;;;;;;;;343976;154;865058;-64
2021/11/20 03:59:21;;;;;;;2.75;1.71;;;;;;;;;;346438;153;865029;-64
2021/11/20 04:00:25;;;;;;;3.31;1.99;;;;;;;;;;348934;153;859103;-64
2021/11/20 04:01:27;;;;;;;3.01;1.92;;;;;;;;;;347775;154;857916;-65
2021/11/20 04:02:29;;;;;;;2.58;1.66;;;;;;;;;;345996;153;857794;-65
2021/11/20 04:03:31;;;;;;;3.29;1.74;;;;;;;;;;342000;154;857993;-63
2021/11/20 04:04:32;;;;;;;2.41;1.29;;;;;;;;;;342818;153;857383;-65
2021/11/20 04:05:34;;;;;;;2.63;1.60;;;;;;;;;;343583;153;866449;-65
2021/11/20 04:06:36;;;;;;;3.85;1.78;;;;;;;;;;351521;150;857484;-66
2021/11/20 04:07:37;;;;;;;3.93;1.74;;;;;;;;;;356457;148;857056;-66
2021/11/20 04:08:39;;;;;;;3.97;2.02;;;;;;;;;;360348;148;860917;-63
2021/11/20 04:09:41;;;;;;;3.99;1.84;;;;;;;;;;359571;147;865894;-64
2021/11/20 04:10:44;;;;;;;3.46;1.58;;;;;;;;;;358736;148;856902;-67
2021/11/20 04:11:46;;;;;;;2.72;1.79;;;;;;;;;;362164;148;863585;-65
2021/11/20 04:12:48;;;;;;;3.97;1.71;;;;;;;;;;361587;147;864910;-65
2021/11/20 04:13:50;;;;;;;3.19;1.61;;;;;;;;;;361227;147;857067;-66
2021/11/20 04:14:51;;;;;;;2.43;1.71;;;;;;;;;;362068;148;866003;-62
2021/11/20 04:15:53;;;;;;;4.35;2.03;;;;;;;;;;360124;148;865921;-65
2021/11/20 04:16:55;;;;;;;1.88;1.67;;;;;;;;;;360343;147;858636;-63
2021/11/20 04:17:56;;;;;;;7.12;2.39;;;;;;;;;;359665;148;864981;-60
2021/11/20 04:18:58;;;;;;;3.71;1.68;;;;;;;;;;361021;147;865976;-63
2021/11/20 04:20:00;;;;;;;3.34;1.88;;;;;;;;;;362123;147;860036;-59
2021/11/20 04:21:02;;;;;;;1.99;1.53;;;;;;;;;;357224;148;865998;-62
2021/11/20 04:22:04;;;;;;;3.18;1.64;;;;;;;;;;359252;148;865015;-61
2021/11/20 04:23:06;;;;;;;2.95;1.49;;;;;;;;;;360837;147;864600;-63
2021/11/20 04:24:07;;;;;;;3.88;1.76;;;;;;;;;;360602;147;864782;-66
2021/11/20 04:25:09;;;;;;;2.25;1.71;;;;;;;;;;359797;147;864146;-61
2021/11/20 04:26:13;;;;;;;3.78;1.45;;;;;;;;;;361440;147;864567;-66
2021/11/20 04:27:15;;;;;;;8.35;1.53;;;;;;;;;;354745;150;857231;-68
2021/11/20 04:28:16;;;;;;;2.39;1.64;;;;;;;;;;353206;148;857709;-62
2021/11/20 04:29:18;;;;;;;3.68;1.46;;;;;;;;;;361825;148;866184;-69
2021/11/20 04:30:25;;;;;;;4.07;1.71;;;;;;;;;;361335;147;864478;-65
2021/11/20 04:31:24;;;;;;;2.23;1.34;;;;;;;;;;361922;147;857890;-66
2021/11/20 04:32:25;;;;;;;3.51;1.86;;;;;;;;;;362411;148;860779;-69
2021/11/20 04:33:27;;;;;;;2.74;1.83;;;;;;;;;;361633;148;864712;-66
2021/11/20 04:34:28;;;;;;;3.89;1.80;;;;;;;;;;361631;147;866321;-63
2021/11/20 04:35:30;;;;;;;4.54;2.01;;;;;;;;;;362208;148;857331;-62
2021/11/20 04:36:32;;;;;;;4.15;1.92;;;;;;;;;;359981;148;862496;-67
2021/11/20 04:37:34;;;;;;;5.19;1.89;;;;;;;;;;363176;148;857336;-71
2021/11/20 04:38:36;;;;;;;1.85;1.23;;;;;;;;;;362100;148;866145;-71
2021/11/20 04:39:37;;;;;;;4.10;1.97;;;;;;;;;;363308;148;859429;-67
2021/11/20 04:40:40;;;;;;;2.73;1.69;;;;;;;;;;360820;148;866640;-69
2021/11/20 04:41:41;;;;;;;2.37;1.76;;;;;;;;;;361811;148;857947;-62
2021/11/20 04:42:43;;;;;;;2.57;1.45;;;;;;;;;;359683;148;864651;-64
2021/11/20 04:43:45;;;;;;;4.40;1.74;;;;;;;;;;359643;148;857308;-65
2021/11/20 04:44:47;;;;;;;3.53;1.88;;;;;;;;;;361931;148;860191;-66
2021/11/20 04:45:49;;;;;;;4.41;2.01;;;;;;;;;;360077;148;864630;-64
2021/11/20 04:46:51;;;;;;;3.59;1.59;;;;;;;;;;360821;148;864774;-67
2021/11/20 04:47:53;;;;;;;7.06;1.92;;;;;;;;;;361210;148;859440;-65
2021/11/20 04:48:55;;;;;;;2.82;1.85;;;;;;;;;;359232;148;864887;-63
2021/11/20 04:49:56;;;;;;;2.54;1.65;;;;;;;;;;361672;148;857169;-65
2021/11/20 04:50:58;;;;;;;2.45;1.55;;;;;;;;;;361748;148;863450;-67
2021/11/20 04:51:59;;;;;;;3.32;1.70;;;;;;;;;;362396;148;860105;-65
2021/11/20 04:53:01;;;;;;;4.74;1.74;;;;;;;;;;360716;147;866293;-66
2021/11/20 04:54:03;;;;;;;2.51;1.54;;;;;;;;;;362085;148;864759;-66
2021/11/20 04:55:05;;;;;;;4.97;1.97;;;;;;;;;;361817;148;865363;-59
2021/11/20 04:56:09;;;;;;;3.42;1.89;;;;;;;;;;362405;147;857133;-66
2021/11/20 04:57:11;;;;;;;3.37;1.80;;;;;;;;;;362594;147;858642;-68
2021/11/20 04:58:13;;;;;;;3.12;1.84;;;;;;;;;;363202;148;858614;-67
2021/11/20 04:59:14;;;;;;;3.93;1.46;;;;;;;;;;360240;148;866234;-62
2021/11/20 05:00:18;;;;;;;5.61;2.09;;;;;;;;;;360598;148;860225;-67
2021/11/20 05:01:20;;;;;;;3.02;1.52;;;;;;;;;;361354;147;864661;-63
2021/11/20 05:02:22;;;;;;;5.17;1.96;;;;;;;;;;362897;148;866461;-64
2021/11/20 05:03:24;;;;;;;5.18;2.08;;;;;;;;;;357251;148;857215;-68
2021/11/20 05:04:26;;;;;;;5.58;2.01;;;;;;;;;;359882;148;858962;-60
2021/11/20 05:05:29;;;;;;;2.50;1.44;;;;;;;;;;362780;148;857210;-63
2021/11/20 05:06:33;;;;;;;4.42;1.86;;;;;;;;;;354915;149;866520;-60
2021/11/20 05:07:34;;;;;;;4.42;2.23;;;;;;;;;;358187;149;857203;-63
2021/11/20 05:08:36;;;;;;;6.49;2.10;;;;;;;;;;358720;149;859482;-62
2021/11/20 05:09:39;;;;;;;3.91;1.81;;;;;;;;;;351997;151;866879;-63
2021/11/20 05:10:41;;;;;;;3.91;1.87;;;;;;;;;;351900;151;857104;-64
2021/11/20 05:11:44;;;;;;;5.69;2.14;;;;;;;;;;354552;149;864864;-66
2021/11/20 05:12:45;;;;;;;4.07;1.81;;;;;;;;;;356158;148;866995;-65
2021/11/20 05:13:47;;;;;;;5.47;1.89;;;;;;;;;;357389;149;859477;-60
2021/11/20 05:14:49;;;;;;;2.75;1.80;;;;;;;;;;357535;149;864682;-58
2021/11/20 05:15:51;;;;;;;5.73;1.71;;;;;;;;;;357464;149;859365;-66
2021/11/20 05:16:53;;;;;;;6.55;2.13;;;;;;;;;;357759;148;859625;-64
2021/11/20 05:17:55;;;;;;;3.50;1.83;;;;;;;;;;352918;151;857785;-66
2021/11/20 05:18:56;;;;;;;2.29;1.89;;;;;;;;;;349358;151;859244;-66
2021/11/20 05:19:58;;;;;;;4.31;2.39;;;;;;;;;;356769;149;864947;-65
2021/11/20 05:21:00;;;;;;;4.81;1.90;;;;;;;;;;357509;149;865649;-68
2021/11/20 05:22:02;;;;;;;5.13;1.95;;;;;;;;;;355315;149;858503;-64
2021/11/20 05:23:04;;;;;;;2.66;1.61;;;;;;;;;;357989;149;857307;-66
2021/11/20 05:24:06;;;;;;;5.72;2.06;;;;;;;;;;356358;149;866214;-64
2021/11/20 05:25:08;;;;;;;2.11;1.66;;;;;;;;;;355260;149;857617;-66
2021/11/20 05:26:12;;;;;;;2.81;1.54;;;;;;;;;;355515;149;866272;-66
2021/11/20 05:27:14;;;;;;;2.50;1.62;;;;;;;;;;358479;149;865834;-68
2021/11/20 05:28:15;;;;;;;7.54;2.09;;;;;;;;;;352711;149;866301;-64
2021/11/20 05:30:35;;;;;;;3.88;1.95;;;;;;;;;;355756;148;857958;-61
2021/11/20 05:31:33;;;;;;;4.58;2.18;;;;;;;;;;355151;149;857279;-62
2021/11/20 05:32:35;;;;;;;3.25;1.31;;;;;;;;;;356124;149;859227;-64
2021/11/20 05:33:39;;;;;;;5.46;1.69;;;;;;;;;;356184;149;857173;-62
2021/11/20 05:34:41;;;;;;;4.51;1.98;;;;;;;;;;356368;149;865068;-63
2021/11/20 05:35:42;;;;;;;3.21;1.90;;;;;;;;;;358381;149;857282;-64
2021/11/20 05:36:44;;;;;;;3.77;1.75;;;;;;;;;;356721;149;865339;-62
2021/11/20 05:37:46;;;;;;;4.39;1.86;;;;;;;;;;354635;149;857316;-63
2021/11/20 05:38:48;;;;;;;5.73;2.01;;;;;;;;;;354105;149;862225;-63
2021/11/20 05:39:49;;;;;;;5.00;2.02;;;;;;;;;;354512;149;857178;-68
2021/11/20 05:40:51;;;;;;;4.91;1.71;;;;;;;;;;356860;149;864850;-66
2021/11/20 05:41:53;;;;;;;4.89;2.02;;;;;;;;;;357267;149;864774;-66
2021/11/20 05:42:55;;;;;;;5.07;1.77;;;;;;;;;;358111;149;859212;-67
2021/11/20 05:43:58;;;;;;;4.71;1.69;;;;;;;;;;356312;149;857324;-60
2021/11/20 05:44:59;;;;;;;6.15;1.85;;;;;;;;;;357181;149;857671;-64
2021/11/20 05:46:06;;;;;;;2.58;1.56;;;;;;;;;;353660;149;858731;-64
2021/11/20 05:47:08;;;;;;;3.51;1.49;;;;;;;;;;355487;149;858678;-64
2021/11/20 05:48:09;;;;;;;3.12;1.36;;;;;;;;;;358180;149;857273;-61
2021/11/20 05:49:11;;;;;;;4.35;2.14;;;;;;;;;;357165;149;865403;-64
2021/11/20 05:50:17;;;;;;;4.83;1.83;;;;;;;;;;358389;149;864813;-65
2021/11/20 05:51:18;;;;;;;9.42;1.94;;;;;;;;;;356128;149;857145;-61
2021/11/20 05:52:20;;;;;;;3.46;1.64;;;;;;;;;;355475;149;857628;-62
2021/11/20 05:53:22;;;;;;;2.69;1.65;;;;;;;;;;356428;149;866351;-62
2021/11/20 05:54:26;;;;;;;4.65;1.74;;;;;;;;;;357713;149;858594;-68
2021/11/20 05:55:29;;;;;;;4.97;1.76;;;;;;;;;;355507;149;858183;-60
2021/11/20 05:56:32;;;;;;;8.89;1.86;;;;;;;;;;355450;149;857278;-62
2021/11/20 05:57:34;;;;;;;4.32;1.85;;;;;;;;;;355982;149;857771;-63
2021/11/20 05:58:35;;;;;;;3.99;1.69;;;;;;;;;;350791;152;859082;-62
2021/11/20 05:59:37;;;;;;;6.04;2.27;;;;;;;;;;351692;151;857394;-61
2021/11/20 06:00:40;;;;;;;3.40;1.63;;;;;;;;;;356774;148;864728;-59
2021/11/20 06:01:42;;;;;;;3.97;1.62;;;;;;;;;;354898;149;857750;-59
2021/11/20 06:02:43;;;;;;;3.27;1.96;;;;;;;;;;356510;149;866639;-60
2021/11/20 06:03:45;;;;;;;2.82;1.43;;;;;;;;;;356975;149;857224;-60
2021/11/20 06:04:47;;;;;;;4.55;2.01;;;;;;;;;;356197;149;859169;-62
2021/11/20 06:05:48;;;;;;;4.21;1.96;;;;;;;;;;356754;149;864757;-59
2021/11/20 06:06:50;;;;;;;4.92;1.65;;;;;;;;;;354737;149;865326;-60
2021/11/20 06:07:52;;;;;;;6.84;2.61;;;;;;;;;;352348;151;857178;-60
2021/11/20 06:08:53;;;;;;;4.38;1.72;;;;;;;;;;352746;151;865549;-59
2021/11/20 06:09:55;;;;;;;3.34;1.59;;;;;;;;;;351986;151;864687;-65
2021/11/20 06:10:58;;;;;;;3.29;1.51;;;;;;;;;;355478;150;862603;-61
2021/11/20 06:12:00;;;;;;;3.91;1.48;;;;;;;;;;351772;150;865378;-65
2021/11/20 06:13:03;;;;;;;5.76;1.69;;;;;;;;;;352504;151;857727;-62
2021/11/20 06:14:05;;;;;;;6.59;2.04;;;;;;;;;;347905;151;865756;-61
2021/11/20 06:15:07;;;;;;;2.73;1.45;;;;;;;;;;347346;151;857244;-61